Time;durP1;ratioP1;P1;durP2;ratioP2;P2;SDS_P1;SDS_P2;PMS_P1;PMS_P2;Temp;Humidity;BMP_temperature;BMP_pressure;BME280_temperature;BME280_humidity;BME280_pressure;Samples;Min_cycle;Max_cycle;Signal;HPM_P1;HPM_P2
2021/08/03 00:01:52;;;;;;;9.25;3.72;;;;;;;22.62;57.76;99838.23;1726343;83;21868;-61
2021/08/03 00:04:22;;;;;;;6.08;3.72;;;;;;;22.59;57.79;99841.02;1726387;83;21065;-59
2021/08/03 00:06:53;;;;;;;14.55;3.70;;;;;;;22.57;58.09;99853.63;1723724;83;21041;-60
2021/08/03 00:09:21;;;;;;;6.78;3.52;;;;;;;22.57;58.27;99851.46;1726179;83;21058;-59
2021/08/03 00:11:48;;;;;;;7.05;3.30;;;;;;;22.56;58.22;99854.73;1726452;83;21014;-60
2021/08/03 00:14:15;;;;;;;8.95;3.60;;;;;;;22.55;58.00;99864.03;1726338;82;22006;-59
2021/08/03 00:16:43;;;;;;;7.55;3.40;;;;;;;22.53;57.92;99867.64;1725972;83;20986;-60
2021/08/03 00:19:10;;;;;;;9.93;3.58;;;;;;;22.52;57.80;99869.33;1725879;83;21061;-59
2021/08/03 00:21:37;;;;;;;11.43;3.00;;;;;;;22.52;57.65;99863.86;1726195;83;21556;-58
2021/08/03 00:24:05;;;;;;;5.87;3.40;;;;;;;22.52;57.62;99861.13;1726182;83;21033;-58
2021/08/03 00:26:32;;;;;;;7.42;3.17;;;;;;;22.51;57.66;99854.88;1726292;83;21971;-58
2021/08/03 00:28:59;;;;;;;7.85;3.67;;;;;;;22.51;57.66;99847.22;1726120;83;21026;-59
2021/08/03 00:31:27;;;;;;;5.67;3.85;;;;;;;22.50;57.82;99845.62;1726293;83;20895;-60
2021/08/03 00:33:55;;;;;;;10.20;3.12;;;;;;;22.49;57.75;99852.20;1726457;83;20962;-59
2021/08/03 00:36:27;;;;;;;;;;;;;;;22.48;57.70;99856.03;1729000;83;21050;-58
2021/08/03 00:38:54;;;;;;;7.42;3.33;;;;;;;22.46;57.59;99859.08;1726191;83;21791;-58
2021/08/03 00:41:28;;;;;;;4.30;2.65;;;;;;;22.44;57.51;99865.42;1726271;83;20991;-59
2021/08/03 00:43:56;;;;;;;8.05;3.10;;;;;;;22.42;57.36;99867.63;1723679;83;20991;-59
2021/08/03 00:46:23;;;;;;;4.87;2.83;;;;;;;22.42;57.36;99873.66;1725224;83;21023;-59
2021/08/03 00:48:52;;;;;;;4.05;2.72;;;;;;;22.39;57.33;99885.46;1726059;83;21792;-58
2021/08/03 00:51:21;;;;;;;5.93;3.77;;;;;;;22.37;57.32;99898.59;1724783;83;21184;-58
2021/08/03 00:53:49;;;;;;;6.22;3.10;;;;;;;22.36;57.35;99903.00;1726383;83;21544;-56
2021/08/03 00:56:16;;;;;;;6.30;3.20;;;;;;;22.35;57.45;99901.41;1726126;83;21084;-57
2021/08/03 00:58:43;;;;;;;3.77;2.77;;;;;;;22.31;57.39;99897.08;1726230;83;21011;-57
2021/08/03 01:01:11;;;;;;;6.10;2.90;;;;;;;22.28;57.40;99909.98;1726070;83;21551;-60
2021/08/03 01:03:38;;;;;;;5.17;2.50;;;;;;;22.27;57.50;99917.11;1726222;83;21599;-59
2021/08/03 01:06:15;;;;;;;5.22;2.65;;;;;;;22.26;57.32;99919.59;1726190;83;20859;-59
2021/08/03 01:09:03;;;;;;;3.58;2.80;;;;;;;22.23;57.52;99923.73;1722519;83;20994;-60
2021/08/03 01:11:50;;;;;;;5.47;2.98;;;;;;;22.22;57.59;99935.78;1664074;83;21101;-57
2021/08/03 01:14:31;;;;;;;3.77;2.00;;;;;;;22.21;57.79;99939.05;1725732;83;21409;-57
2021/08/03 01:17:13;;;;;;;4.40;2.52;;;;;;;22.22;57.26;99938.52;1726375;82;21001;-59
2021/08/03 01:20:04;;;;;;;3.72;1.87;;;;;;;22.22;56.97;99941.24;1699520;83;21023;-58
2021/08/03 01:23:20;;;;;;;4.53;1.72;;;;;;;22.19;56.57;99941.30;1726308;83;21559;-57
2021/08/03 01:26:28;;;;;;;3.15;1.60;;;;;;;22.12;56.56;99939.53;1725079;83;20923;-58
2021/08/03 01:28:58;;;;;;;1.80;1.35;;;;;;;22.06;56.59;99940.76;1725261;83;20943;-56
2021/08/03 01:31:36;;;;;;;2.80;1.55;;;;;;;22.02;56.03;99940.55;1726329;83;21207;-57
2021/08/03 01:34:07;;;;;;;4.05;1.40;;;;;;;21.95;55.64;99928.44;1699202;83;21604;-61
2021/08/03 01:36:37;;;;;;;3.45;1.45;;;;;;;21.85;55.35;99925.38;1726418;81;20959;-60
2021/08/03 01:39:04;;;;;;;3.02;1.07;;;;;;;21.74;55.28;99931.58;1727344;83;21010;-59
2021/08/03 01:41:33;;;;;;;3.17;1.20;;;;;;;21.70;55.76;99929.20;1727423;83;21511;-60
2021/08/03 01:44:02;;;;;;;1.87;1.07;;;;;;;21.73;55.78;99939.53;1727477;82;21149;-60
2021/08/03 01:46:29;;;;;;;1.80;1.20;;;;;;;21.78;55.62;99950.33;1727206;83;21076;-60
2021/08/03 01:48:59;;;;;;;1.87;1.12;;;;;;;21.82;55.34;99959.53;1724662;83;20899;-60
2021/08/03 01:51:27;;;;;;;1.57;1.05;;;;;;;21.82;55.26;99967.71;1727172;83;21034;-61
2021/08/03 01:53:54;;;;;;;2.03;1.40;;;;;;;21.79;55.20;99968.32;1727623;83;21019;-59
2021/08/03 01:56:22;;;;;;;1.50;1.20;;;;;;;21.76;55.17;99973.55;1727508;83;21133;-59
2021/08/03 01:58:50;;;;;;;1.35;1.20;;;;;;;21.72;55.41;99969.84;1727476;83;21035;-58
2021/08/03 02:01:20;;;;;;;2.25;1.22;;;;;;;21.70;55.64;99978.30;1726151;83;21018;-58
2021/08/03 02:03:48;;;;;;;1.42;0.90;;;;;;;21.69;55.63;99969.87;1722781;83;21026;-57
2021/08/03 02:06:15;;;;;;;4.05;0.95;;;;;;;21.68;55.75;99980.53;1727556;83;20978;-56
2021/08/03 02:08:44;;;;;;;3.27;1.32;;;;;;;21.68;55.77;99986.78;1727918;83;21173;-57
2021/08/03 02:11:12;;;;;;;2.92;1.22;;;;;;;21.69;55.77;99987.05;1727018;83;21485;-57
2021/08/03 02:13:39;;;;;;;1.22;0.98;;;;;;;21.66;55.85;99992.31;1727437;83;21540;-58
2021/08/03 02:16:09;;;;;;;;;;;;;;;21.64;56.03;100004.05;1729518;83;21430;-57
2021/08/03 02:18:37;;;;;;;7.17;1.80;;;;;;;21.63;56.18;99994.27;1725018;83;20119;-57
2021/08/03 02:21:05;;;;;;;1.52;1.30;;;;;;;21.61;56.12;99991.02;1726235;83;21143;-58
2021/08/03 02:23:31;;;;;;;1.47;1.22;;;;;;;21.60;56.03;99991.59;1727223;83;21519;-58
2021/08/03 02:26:00;;;;;;;3.52;1.67;;;;;;;21.59;56.07;99997.34;1726816;83;21190;-58
2021/08/03 02:28:26;;;;;;;1.00;0.90;;;;;;;21.57;56.14;99995.45;1727343;83;21559;-57
2021/08/03 02:30:55;;;;;;;;;;;;;;;21.56;56.24;100000.67;1729977;83;21635;-59
2021/08/03 02:33:27;;;;;;;2.50;0.93;;;;;;;21.56;56.17;99996.02;1727175;82;21939;-58
2021/08/03 02:36:03;;;;;;;1.75;1.30;;;;;;;21.53;56.30;100002.87;1727167;83;21441;-59
2021/08/03 02:38:33;;;;;;;1.20;1.10;;;;;;;21.51;56.34;100011.92;1724608;82;20923;-58
2021/08/03 02:41:00;;;;;;;2.47;1.32;;;;;;;21.51;56.47;100019.30;1714899;83;21509;-59
2021/08/03 02:43:31;;;;;;;4.12;1.25;;;;;;;21.54;56.41;100010.52;1705025;83;20947;-58
2021/08/03 02:46:03;;;;;;;3.02;1.10;;;;;;;21.57;56.07;100009.09;1726735;83;21153;-61
2021/08/03 02:48:31;;;;;;;2.60;1.35;;;;;;;21.53;56.03;100000.71;1692362;83;21002;-60
2021/08/03 02:50:59;;;;;;;2.47;1.87;;;;;;;21.52;56.21;99993.09;1727016;83;20962;-59
2021/08/03 02:53:30;;;;;;;2.83;1.55;;;;;;;21.52;55.95;100005.91;1727268;83;21035;-59
2021/08/03 02:56:02;;;;;;;3.37;1.27;;;;;;;21.46;56.14;100018.78;1724991;83;21046;-58
2021/08/03 02:58:39;;;;;;;1.40;1.30;;;;;;;21.45;56.21;100023.17;1724705;83;22129;-58
2021/08/03 03:01:07;;;;;;;1.22;1.10;;;;;;;21.40;56.30;100018.62;1727186;83;20935;-59
2021/08/03 03:03:35;;;;;;;1.17;1.12;;;;;;;21.39;56.60;100014.27;1704650;83;21468;-59
2021/08/03 03:06:06;;;;;;;1.37;1.25;;;;;;;21.41;57.22;100006.62;1726729;83;20974;-59
2021/08/03 03:08:35;;;;;;;3.75;1.30;;;;;;;21.38;57.46;100011.84;1727288;83;21520;-58
2021/08/03 03:11:03;;;;;;;1.30;1.10;;;;;;;21.33;57.70;100016.30;1727739;83;21137;-58
2021/08/03 03:13:42;;;;;;;1.92;1.37;;;;;;;21.32;58.50;100026.14;1727247;83;20994;-57
2021/08/03 03:16:09;;;;;;;1.70;1.00;;;;;;;21.32;58.37;100032.95;1727187;83;21136;-58
2021/08/03 03:18:37;;;;;;;1.30;1.20;;;;;;;21.26;59.00;100021.32;1727210;83;20911;-60
2021/08/03 03:21:04;;;;;;;1.20;1.20;;;;;;;21.26;59.00;100021.32;1727611;83;21104;-59
2021/08/03 03:23:35;;;;;;;2.95;1.60;;;;;;;21.25;59.28;100028.44;1727474;83;21147;-60
2021/08/03 03:26:04;;;;;;;1.17;1.07;;;;;;;21.25;59.46;100031.96;1727518;82;20990;-61
2021/08/03 03:28:32;;;;;;;;;;;;;;;21.26;59.51;100028.67;1727097;83;21029;-60
2021/08/03 03:30:59;;;;;;;2.45;1.72;;;;;;;21.28;59.71;100028.64;1727627;83;20159;-61
2021/08/03 03:33:26;;;;;;;3.98;1.22;;;;;;;21.30;59.71;100026.97;1727252;83;21357;-60
2021/08/03 03:35:58;;;;;;;3.77;1.60;;;;;;;21.29;59.44;100026.70;1726617;83;21847;-58
2021/08/03 03:38:28;;;;;;;4.80;1.35;;;;;;;21.27;59.60;100030.30;1727224;83;20963;-59
2021/08/03 03:40:55;;;;;;;2.27;1.27;;;;;;;21.25;59.68;100025.14;1727337;83;20975;-59
2021/08/03 03:43:28;;;;;;;2.27;1.42;;;;;;;21.27;59.68;100023.48;1727197;83;21008;-58
2021/08/03 03:46:13;;;;;;;2.70;1.37;;;;;;;21.27;59.67;100027.57;1681608;83;21041;-58
2021/08/03 03:48:49;;;;;;;4.17;1.57;;;;;;;21.27;59.62;100019.39;1725920;83;21047;-59
2021/08/03 03:51:18;;;;;;;1.82;1.57;;;;;;;21.25;59.48;100024.34;1727242;83;21011;-58
2021/08/03 03:53:54;;;;;;;3.65;1.47;;;;;;;21.26;59.55;100025.95;1704543;83;21007;-58
2021/08/03 03:56:24;;;;;;;2.45;1.75;;;;;;;21.29;59.47;100029.44;1689730;83;21065;-58
2021/08/03 03:59:01;;;;;;;1.95;1.65;;;;;;;21.32;59.30;100031.59;1676845;83;21009;-59
2021/08/03 04:01:28;;;;;;;1.50;1.37;;;;;;;21.33;59.21;100035.38;1725965;83;21234;-58
2021/08/03 04:04:01;;;;;;;2.55;1.85;;;;;;;21.38;59.64;100041.83;1727254;83;20998;-58
2021/08/03 04:06:28;;;;;;;2.77;1.77;;;;;;;21.41;59.52;100042.06;1727227;83;20880;-59
2021/08/03 04:08:55;;;;;;;2.55;1.40;;;;;;;21.45;59.32;100046.34;1704588;83;21610;-60
2021/08/03 04:11:23;;;;;;;2.65;1.90;;;;;;;21.47;59.17;100041.42;1727257;83;20904;-59
2021/08/03 04:13:54;;;;;;;2.58;2.08;;;;;;;21.48;59.21;100040.30;1727129;83;21748;-58
2021/08/03 04:16:22;;;;;;;2.65;1.80;;;;;;;21.51;58.89;100041.12;1727097;83;21007;-59
2021/08/03 04:18:49;;;;;;;1.22;1.12;;;;;;;21.54;58.73;100035.06;1727183;83;21057;-60
2021/08/03 04:21:15;;;;;;;2.17;1.22;;;;;;;21.58;58.83;100043.44;1727099;83;21074;-60
2021/08/03 04:23:42;;;;;;;1.30;1.15;;;;;;;21.62;58.78;100047.19;1727475;83;20959;-59
2021/08/03 04:26:10;;;;;;;2.42;1.55;;;;;;;21.68;58.51;100040.53;1727365;83;21790;-59
2021/08/03 04:28:37;;;;;;;8.78;1.60;;;;;;;21.75;58.39;100038.78;1727388;83;21516;-59
2021/08/03 04:31:03;;;;;;;2.25;1.47;;;;;;;21.82;58.25;100037.27;1727170;83;21070;-59
2021/08/03 04:33:30;;;;;;;1.45;1.30;;;;;;;21.88;58.02;100041.52;1724504;83;20967;-58
2021/08/03 04:35:57;;;;;;;3.37;1.30;;;;;;;22.04;57.55;100034.42;1727309;83;21137;-59
2021/08/03 04:38:23;;;;;;;3.25;1.40;;;;;;;22.20;57.07;100038.45;1726970;83;23419;-58
2021/08/03 04:40:50;;;;;;;2.85;1.50;;;;;;;22.42;56.92;100041.59;1726271;83;20946;-57
2021/08/03 04:43:18;;;;;;;1.62;1.52;;;;;;;22.72;56.42;100047.75;1726497;83;20959;-59
2021/08/03 04:45:44;;;;;;;1.82;1.47;;;;;;;23.22;55.50;100048.84;1726578;83;21037;-58
2021/08/03 04:48:14;;;;;;;2.25;1.10;;;;;;;23.77;54.00;100050.45;1726351;83;21584;-59
2021/08/03 04:50:41;;;;;;;2.02;1.37;;;;;;;24.27;52.88;100049.38;1723468;83;21114;-58
2021/08/03 04:53:08;;;;;;;4.72;1.72;;;;;;;24.70;51.38;100052.78;1726174;83;20982;-58
2021/08/03 04:55:34;;;;;;;7.47;1.92;;;;;;;24.87;50.46;100057.48;1726541;83;20963;-58
2021/08/03 04:58:01;;;;;;;1.60;1.30;;;;;;;24.87;50.31;100070.37;1725710;83;20961;-59
2021/08/03 05:00:29;;;;;;;2.87;1.50;;;;;;;24.82;50.28;100072.16;1726321;83;20967;-59
2021/08/03 05:02:55;;;;;;;1.62;1.50;;;;;;;24.80;50.27;100073.60;1724249;83;21113;-61
2021/08/03 05:05:24;;;;;;;1.65;1.47;;;;;;;24.88;49.74;100071.45;1726383;83;21010;-60
2021/08/03 05:07:59;;;;;;;2.15;1.20;;;;;;;25.38;49.50;100082.48;1726566;83;21406;-57
2021/08/03 05:10:29;;;;;;;4.55;1.20;;;;;;;26.05;47.67;100078.88;1726537;83;21434;-57
2021/08/03 05:12:55;;;;;;;1.55;1.30;;;;;;;26.32;46.32;100069.36;1725948;83;20971;-57
2021/08/03 05:15:24;;;;;;;2.55;1.30;;;;;;;26.29;45.91;100072.77;1726144;83;21493;-60
2021/08/03 05:17:51;;;;;;;5.08;1.30;;;;;;;26.17;46.25;100077.59;1726283;83;21006;-60
2021/08/03 05:20:17;;;;;;;3.52;1.17;;;;;;;26.02;46.33;100080.91;1726267;83;20915;-57
2021/08/03 05:22:44;;;;;;;1.32;1.10;;;;;;;25.73;45.98;100080.25;1726628;83;21537;-61
2021/08/03 05:25:11;;;;;;;4.35;1.62;;;;;;;25.30;46.79;100072.31;1726302;83;20974;-58
2021/08/03 05:27:39;;;;;;;2.30;1.45;;;;;;;24.94;47.83;100082.48;1726313;83;21161;-59
2021/08/03 05:30:07;;;;;;;1.70;1.57;;;;;;;24.67;48.61;100087.68;1726249;83;21050;-59
2021/08/03 05:32:33;;;;;;;3.87;1.42;;;;;;;24.43;48.83;100079.88;1727018;83;20982;-61
2021/08/03 05:35:00;;;;;;;1.87;1.55;;;;;;;24.20;49.20;100090.11;1726361;83;21500;-62
2021/08/03 05:37:26;;;;;;;2.25;1.60;;;;;;;24.02;50.40;100093.34;1726218;83;20970;-59
2021/08/03 05:39:54;;;;;;;3.87;1.40;;;;;;;23.92;50.75;100093.05;1726317;82;21147;-59
2021/08/03 05:42:21;;;;;;;;;;;;;;;23.88;51.16;100102.45;1725059;83;21061;-59
2021/08/03 05:44:47;;;;;;;4.55;1.70;;;;;;;23.83;51.17;100098.44;1726288;83;20204;-59
2021/08/03 05:47:15;;;;;;;3.30;1.40;;;;;;;23.77;51.21;100093.66;1726272;83;20962;-59
2021/08/03 05:49:42;;;;;;;1.60;1.50;;;;;;;23.76;50.94;100083.02;1725074;83;24809;-59
2021/08/03 05:52:09;;;;;;;1.95;1.60;;;;;;;23.84;50.67;100095.95;1723286;81;21074;-58
2021/08/03 05:54:36;;;;;;;2.37;1.52;;;;;;;24.21;50.60;100098.58;1717977;83;20995;-58
2021/08/03 05:57:03;;;;;;;4.08;1.20;;;;;;;24.90;48.95;100095.22;1723283;83;20954;-59
2021/08/03 05:59:30;;;;;;;5.12;1.57;;;;;;;25.84;47.59;100103.48;1726485;83;21119;-58
2021/08/03 06:01:58;;;;;;;2.25;1.50;;;;;;;27.18;44.52;100103.49;1726340;81;21296;-58
2021/08/03 06:04:25;;;;;;;1.85;1.50;;;;;;;28.33;41.81;100108.06;1726439;83;21151;-58
2021/08/03 06:06:52;;;;;;;3.12;1.30;;;;;;;29.03;40.45;100101.53;1726069;83;21521;-59
2021/08/03 06:09:20;;;;;;;1.90;1.30;;;;;;;29.75;39.01;100102.74;1723067;83;20990;-58
2021/08/03 06:11:49;;;;;;;2.70;1.30;;;;;;;30.72;37.41;100106.51;1726044;83;21022;-59
2021/08/03 06:14:39;;;;;;;3.25;1.25;;;;;;;31.82;35.53;100103.59;1726069;83;20903;-58
2021/08/03 06:17:11;;;;;;;2.42;1.22;;;;;;;32.87;33.00;100117.12;1723375;83;21429;-59
2021/08/03 06:19:45;;;;;;;2.45;1.50;;;;;;;33.89;31.67;100118.50;1726454;83;21552;-57
2021/08/03 06:22:11;;;;;;;1.40;1.25;;;;;;;34.27;30.19;100124.02;1725497;83;21568;-58
2021/08/03 06:24:40;;;;;;;1.27;1.00;;;;;;;33.88;30.19;100121.89;1726506;83;21073;-58
2021/08/03 06:27:09;;;;;;;3.62;1.30;;;;;;;33.12;30.52;100124.98;1726175;83;21524;-58
2021/08/03 06:29:37;;;;;;;1.82;1.40;;;;;;;32.20;32.15;100121.29;1699249;83;21946;-56
2021/08/03 06:32:04;;;;;;;;;;;;;;;31.40;33.15;100128.70;1727122;83;21460;-57
2021/08/03 06:34:35;;;;;;;3.12;1.72;;;;;;;30.62;34.25;100134.73;1726734;83;20128;-58
2021/08/03 06:37:02;;;;;;;1.87;1.30;;;;;;;29.95;35.62;100139.02;1696922;83;21062;-58
2021/08/03 06:39:29;;;;;;;1.82;1.27;;;;;;;29.38;36.12;100136.06;1726451;83;21477;-57
2021/08/03 06:42:29;;;;;;;1.90;1.42;;;;;;;28.82;37.15;100141.12;1722544;83;21182;-58
2021/08/03 06:45:05;;;;;;;2.37;1.67;;;;;;;28.34;38.39;100134.45;1698135;83;21002;-57
2021/08/03 06:48:12;;;;;;;3.25;1.52;;;;;;;27.85;39.46;100143.42;1725745;83;20971;-58
2021/08/03 06:50:52;;;;;;;3.12;1.67;;;;;;;27.45;40.12;100148.12;1721656;83;20880;-60
2021/08/03 06:53:19;;;;;;;2.85;1.55;;;;;;;27.08;40.93;100152.83;1721607;83;20974;-59
2021/08/03 06:55:48;;;;;;;1.65;1.55;;;;;;;26.87;41.66;100156.95;1726315;83;21112;-58
2021/08/03 06:58:32;;;;;;;3.60;1.42;;;;;;;26.79;42.30;100163.30;1726256;83;20900;-59
2021/08/03 07:00:59;;;;;;;3.25;1.72;;;;;;;26.77;42.29;100151.84;1720961;83;20919;-58
2021/08/03 07:03:26;;;;;;;4.60;1.95;;;;;;;26.75;42.59;100152.17;1726410;83;21468;-58
2021/08/03 07:05:54;;;;;;;3.20;1.40;;;;;;;26.77;43.24;100141.39;1723175;83;21066;-60
2021/08/03 07:08:21;;;;;;;1.98;1.35;;;;;;;26.78;42.22;100140.26;1725791;83;21129;-58
2021/08/03 07:10:52;;;;;;;2.60;1.50;;;;;;;26.84;42.92;100141.67;1723318;83;21005;-58
2021/08/03 07:13:19;;;;;;;1.60;1.50;;;;;;;27.07;41.74;100139.41;1722814;83;21037;-58
2021/08/03 07:15:47;;;;;;;2.05;1.37;;;;;;;27.31;41.37;100140.12;1726114;83;20975;-58
2021/08/03 07:18:14;;;;;;;1.20;1.00;;;;;;;27.52;41.11;100142.88;1725833;83;21065;-58
2021/08/03 07:20:41;;;;;;;1.82;1.20;;;;;;;27.69;39.42;100147.97;1726310;83;21102;-59
2021/08/03 07:23:10;;;;;;;1.07;0.90;;;;;;;27.67;38.50;100154.41;1726321;83;20963;-58
2021/08/03 07:25:37;;;;;;;1.67;1.20;;;;;;;27.60;38.02;100149.44;1726164;83;20999;-58
2021/08/03 07:28:04;;;;;;;3.40;1.32;;;;;;;27.41;38.49;100148.00;1726224;83;21543;-58
2021/08/03 07:30:30;;;;;;;1.27;1.17;;;;;;;27.24;40.04;100150.28;1726628;83;21023;-59
2021/08/03 07:32:57;;;;;;;1.22;1.07;;;;;;;27.37;39.50;100149.81;1725914;83;22391;-58
2021/08/03 07:35:24;;;;;;;3.87;1.72;;;;;;;27.50;38.24;100143.77;1724914;83;21007;-59
2021/08/03 07:37:51;;;;;;;1.37;1.20;;;;;;;27.53;38.88;100148.63;1726270;83;20990;-58
2021/08/03 07:40:17;;;;;;;2.20;1.30;;;;;;;27.71;38.62;100152.00;1723079;82;21003;-60
2021/08/03 07:42:44;;;;;;;1.85;1.30;;;;;;;27.84;38.97;100152.03;1726273;83;21600;-61
2021/08/03 07:45:11;;;;;;;3.92;1.25;;;;;;;28.03;37.54;100148.20;1724581;83;21174;-59
2021/08/03 07:47:38;;;;;;;1.32;1.22;;;;;;;27.93;37.98;100159.06;1726387;83;21065;-59
2021/08/03 07:50:06;;;;;;;2.55;1.20;;;;;;;27.88;38.14;100157.89;1725703;83;20947;-60
2021/08/03 07:52:33;;;;;;;4.55;1.62;;;;;;;27.94;39.29;100158.48;1725578;83;21006;-60
2021/08/03 07:54:59;;;;;;;1.37;1.27;;;;;;;28.10;39.40;100157.28;1724107;81;20971;-61
2021/08/03 07:57:26;;;;;;;1.05;0.95;;;;;;;28.26;38.74;100155.47;1725631;82;21814;-60
2021/08/03 07:59:54;;;;;;;1.60;1.15;;;;;;;28.39;37.39;100156.28;1726137;83;21013;-61
2021/08/03 08:02:21;;;;;;;3.25;1.20;;;;;;;28.42;36.11;100152.84;1726119;83;21531;-60
2021/08/03 08:04:48;;;;;;;2.85;1.30;;;;;;;28.10;36.39;100152.57;1726572;83;21496;-59
2021/08/03 08:07:14;;;;;;;4.40;1.40;;;;;;;27.88;37.26;100152.97;1726121;83;21015;-60
2021/08/03 08:09:41;;;;;;;1.37;1.17;;;;;;;27.80;37.58;100151.34;1726425;83;21850;-62
2021/08/03 08:12:10;;;;;;;3.45;1.00;;;;;;;27.57;38.21;100152.87;1725538;83;21070;-61
2021/08/03 08:14:36;;;;;;;2.62;1.30;;;;;;;27.37;38.28;100155.87;1723556;83;20927;-59
2021/08/03 08:17:05;;;;;;;2.22;1.50;;;;;;;27.34;39.42;100155.99;1723399;83;20997;-58
2021/08/03 08:19:33;;;;;;;2.10;1.40;;;;;;;27.43;39.90;100154.55;1726146;83;20967;-60
2021/08/03 08:22:00;;;;;;;1.25;1.15;;;;;;;27.57;39.84;100152.28;1726079;83;21169;-60
2021/08/03 08:24:28;;;;;;;1.05;0.90;;;;;;;27.70;38.70;100156.48;1725945;83;20959;-60
2021/08/03 08:26:55;;;;;;;2.80;1.35;;;;;;;27.58;38.81;100151.15;1726224;83;21010;-60
2021/08/03 08:29:22;;;;;;;1.30;1.20;;;;;;;27.54;38.97;100152.97;1726501;83;21583;-61
2021/08/03 08:31:48;;;;;;;3.50;1.87;;;;;;;27.58;38.70;100151.73;1726269;83;21476;-59
2021/08/03 08:34:16;;;;;;;1.50;1.17;;;;;;;27.63;38.54;100155.64;1722331;83;39285;-59
2021/08/03 08:36:42;;;;;;;2.65;1.40;;;;;;;27.65;38.37;100147.86;1726176;83;20979;-59
2021/08/03 08:39:09;;;;;;;2.27;1.80;;;;;;;27.42;39.17;100150.17;1726028;82;21023;-59
2021/08/03 08:41:37;;;;;;;4.37;2.00;;;;;;;27.29;39.87;100145.14;1725573;81;20970;-59
2021/08/03 08:44:05;;;;;;;;;;;;;;;27.33;40.45;100146.12;1727060;83;21018;-61
2021/08/03 08:46:36;;;;;;;1.10;1.10;;;;;;;27.44;40.22;100146.50;1726487;83;21771;-59
2021/08/03 08:49:06;;;;;;;5.25;1.52;;;;;;;27.49;39.54;100146.31;1726056;81;20995;-60
2021/08/03 08:51:32;;;;;;;1.70;1.25;;;;;;;27.49;40.01;100145.48;1726125;83;20995;-60
2021/08/03 08:54:00;;;;;;;1.43;1.33;;;;;;;27.52;40.76;100142.88;1726303;83;20970;-60
2021/08/03 08:56:29;;;;;;;1.80;1.70;;;;;;;27.59;40.20;100139.01;1726173;83;21018;-60
2021/08/03 08:58:56;;;;;;;2.15;1.60;;;;;;;27.62;39.01;100138.33;1725994;83;21240;-60
2021/08/03 09:01:23;;;;;;;2.95;1.57;;;;;;;27.49;39.39;100142.73;1724697;83;21007;-59
2021/08/03 09:03:50;;;;;;;1.80;1.70;;;;;;;27.36;38.47;100137.19;1726133;83;20966;-58
2021/08/03 09:06:21;;;;;;;2.83;1.50;;;;;;;27.20;39.42;100136.17;1726085;83;21014;-59
2021/08/03 09:08:50;;;;;;;4.25;1.62;;;;;;;27.15;40.08;100130.85;1726033;83;21034;-59
2021/08/03 09:11:19;;;;;;;2.08;1.42;;;;;;;27.20;39.19;100138.92;1726337;83;21056;-59
2021/08/03 09:13:56;;;;;;;1.87;1.65;;;;;;;27.16;39.80;100132.47;1726052;83;20943;-58
2021/08/03 09:16:27;;;;;;;3.47;1.50;;;;;;;27.16;39.92;100127.77;1725952;82;20995;-59
2021/08/03 09:18:57;;;;;;;1.77;1.50;;;;;;;27.09;40.44;100129.70;1726135;83;20954;-59
2021/08/03 09:21:29;;;;;;;3.60;1.52;;;;;;;27.08;40.81;100121.78;1725822;83;20990;-59
2021/08/03 09:24:01;;;;;;;2.87;1.60;;;;;;;27.15;39.91;100122.05;1726169;83;21783;-59
2021/08/03 09:26:47;;;;;;;3.37;1.50;;;;;;;27.05;39.67;100119.70;1721665;83;20978;-60
2021/08/03 09:29:17;;;;;;;2.60;1.40;;;;;;;26.96;40.70;100119.77;1726459;83;20903;-60
2021/08/03 09:31:56;;;;;;;2.08;1.80;;;;;;;26.99;40.71;100110.84;1726111;83;21556;-58
2021/08/03 09:34:23;;;;;;;2.37;1.87;;;;;;;27.05;40.46;100111.45;1725769;83;21557;-58
2021/08/03 09:36:58;;;;;;;2.65;1.50;;;;;;;27.14;40.63;100111.38;1726211;81;21147;-59
2021/08/03 09:39:46;;;;;;;2.85;1.90;;;;;;;27.21;40.55;100102.02;1724569;81;21092;-59
2021/08/03 09:42:19;;;;;;;2.27;1.40;;;;;;;27.35;41.02;100098.42;1726521;83;21006;-60
2021/08/03 09:44:50;;;;;;;1.50;1.20;;;;;;;27.47;40.47;100102.38;1720628;83;21050;-59
2021/08/03 09:47:17;;;;;;;2.87;1.20;;;;;;;27.49;39.91;100098.14;1726757;83;21014;-59
2021/08/03 09:49:48;;;;;;;1.82;1.65;;;;;;;27.52;39.96;100098.84;1727761;83;21367;-60
2021/08/03 09:52:18;;;;;;;2.47;1.60;;;;;;;27.53;39.68;100104.59;1725373;83;21560;-60
2021/08/03 09:54:47;;;;;;;2.08;1.25;;;;;;;27.53;39.49;100096.88;1724526;83;20938;-59
2021/08/03 09:57:25;;;;;;;4.20;1.37;;;;;;;27.53;39.03;100094.13;1727377;83;21015;-59
2021/08/03 09:59:55;;;;;;;1.40;1.30;;;;;;;27.44;39.10;100095.03;1727148;83;20990;-59
2021/08/03 10:02:25;;;;;;;3.27;1.60;;;;;;;27.35;39.26;100097.05;1727371;83;21137;-59
2021/08/03 10:04:53;;;;;;;1.65;1.40;;;;;;;27.25;39.09;100097.44;1726739;83;21058;-59
2021/08/03 10:07:21;;;;;;;2.35;1.27;;;;;;;27.07;39.78;100096.20;1727231;83;20974;-59
2021/08/03 10:09:49;;;;;;;;;;;;;;;26.92;40.09;100099.57;1726998;83;21069;-59
2021/08/03 10:12:16;;;;;;;4.40;1.35;;;;;;;26.87;39.72;100103.33;1727450;83;20224;-58
2021/08/03 10:14:44;;;;;;;2.27;1.40;;;;;;;26.87;39.02;100098.38;1727364;83;21216;-58
2021/08/03 10:17:13;;;;;;;1.60;1.45;;;;;;;26.88;39.29;100091.20;1727440;83;20951;-59
2021/08/03 10:19:40;;;;;;;1.47;1.37;;;;;;;26.89;40.15;100091.41;1720819;81;21035;-59
2021/08/03 10:22:31;;;;;;;1.42;1.32;;;;;;;26.96;39.05;100092.81;1726439;83;21043;-61
2021/08/03 10:25:09;;;;;;;1.60;1.00;;;;;;;26.99;37.65;100092.17;1726917;83;21039;-59
2021/08/03 10:27:53;;;;;;;1.15;1.05;;;;;;;27.05;38.11;100088.08;1727298;83;21112;-60
2021/08/03 10:30:34;;;;;;;2.90;1.40;;;;;;;27.12;37.24;100091.09;1725576;83;21603;-59
2021/08/03 10:33:10;;;;;;;1.62;1.22;;;;;;;27.20;37.92;100085.27;1725134;83;20955;-61
2021/08/03 10:35:49;;;;;;;2.45;1.25;;;;;;;27.31;37.54;100093.91;1726418;83;21014;-60
2021/08/03 10:38:18;;;;;;;1.42;1.20;;;;;;;27.37;37.24;100087.08;1724837;83;21014;-59
2021/08/03 10:40:50;;;;;;;1.80;1.40;;;;;;;27.42;37.22;100087.67;1726791;82;21201;-59
2021/08/03 10:43:23;;;;;;;1.30;1.20;;;;;;;27.48;37.81;100095.73;1727235;83;21026;-60
2021/08/03 10:46:09;;;;;;;1.50;1.27;;;;;;;27.54;38.16;100090.24;1727265;82;21801;-58
2021/08/03 10:48:42;;;;;;;2.33;1.20;;;;;;;27.58;37.17;100076.83;1683347;83;21116;-61
2021/08/03 10:51:19;;;;;;;2.72;1.00;;;;;;;27.60;36.94;100072.36;1727211;83;21003;-60
2021/08/03 10:54:12;;;;;;;2.52;1.10;;;;;;;27.59;36.54;100085.33;1727161;83;21143;-60
2021/08/03 10:57:02;;;;;;;1.45;1.35;;;;;;;27.59;36.75;100079.00;1726764;83;20966;-60
2021/08/03 10:59:38;;;;;;;2.42;1.35;;;;;;;27.62;36.75;100079.14;1724195;83;21014;-59
2021/08/03 11:02:26;;;;;;;1.50;1.40;;;;;;;27.63;36.99;100079.94;1725934;83;21581;-59
2021/08/03 11:04:55;;;;;;;1.85;1.20;;;;;;;27.64;35.77;100075.25;1725193;83;21006;-59
2021/08/03 11:07:30;;;;;;;1.52;1.42;;;;;;;27.52;36.70;100075.45;1726121;83;21150;-60
2021/08/03 11:10:21;;;;;;;2.00;1.10;;;;;;;27.51;36.87;100074.41;1724932;83;21061;-59
2021/08/03 11:12:50;;;;;;;2.05;1.40;;;;;;;27.50;37.69;100076.92;1723420;83;20927;-59
2021/08/03 11:15:33;;;;;;;2.65;1.40;;;;;;;27.52;37.51;100076.03;1727654;83;21014;-58
2021/08/03 11:18:08;;;;;;;1.98;1.60;;;;;;;27.56;37.27;100076.94;1724417;83;21110;-60
2021/08/03 11:20:41;;;;;;;1.82;1.40;;;;;;;27.55;37.07;100077.52;1724795;81;21855;-61
2021/08/03 11:23:16;;;;;;;2.27;1.60;;;;;;;27.55;37.10;100075.34;1688144;84;21215;-60
2021/08/03 11:25:46;;;;;;;2.30;1.50;;;;;;;27.53;37.81;100065.23;1674934;83;21141;-61
2021/08/03 11:28:15;;;;;;;2.58;1.40;;;;;;;27.53;37.21;100063.30;1728922;82;20951;-59
2021/08/03 11:30:46;;;;;;;3.65;1.60;;;;;;;27.55;37.10;100075.34;1710696;83;21548;-60
2021/08/03 11:33:14;;;;;;;2.92;1.80;;;;;;;27.56;37.24;100066.75;1729165;83;21806;-60
2021/08/03 11:35:41;;;;;;;1.32;1.17;;;;;;;27.55;37.69;100067.88;1728628;83;21551;-59
2021/08/03 11:38:11;;;;;;;4.97;1.77;;;;;;;27.52;38.19;100067.19;1729179;83;20998;-59
2021/08/03 11:40:45;;;;;;;1.50;1.40;;;;;;;27.49;38.06;100067.87;1729084;82;21465;-61
2021/08/03 11:43:11;;;;;;;2.90;1.55;;;;;;;27.47;38.07;100067.97;1727393;83;21049;-61
2021/08/03 11:45:40;;;;;;;2.12;1.42;;;;;;;27.43;38.47;100063.73;1723654;83;21525;-58